createdAt,value
2019-01-04T00:00:20.739Z,16.50
2019-01-04T00:02:48.247Z,12.20
2019-01-04T00:05:15.842Z,13.47
2019-01-04T00:07:43.463Z,16.77
2019-01-04T00:10:10.990Z,11.17
2019-01-04T00:12:38.538Z,10.53
2019-01-04T00:15:06.110Z,18.20
2019-01-04T00:17:33.718Z,18.30
2019-01-04T00:20:01.354Z,19.70
2019-01-04T00:22:28.955Z,16.10
2019-01-04T00:24:56.483Z,21.80
2019-01-04T00:27:24.082Z,19.07
2019-01-04T00:29:51.682Z,13.67
2019-01-04T00:32:19.260Z,12.97
2019-01-04T00:34:46.933Z,19.07
2019-01-04T00:37:14.474Z,19.03
2019-01-04T00:39:42.001Z,15.40
2019-01-04T00:42:09.501Z,11.60
2019-01-04T00:44:37.022Z,17.20
2019-01-04T00:47:04.554Z,7.47
2019-01-04T00:49:32.058Z,12.03
2019-01-04T00:51:59.557Z,11.93
2019-01-04T00:54:27.138Z,14.93
2019-01-04T00:57:08.026Z,14.63
2019-01-04T01:00:35.714Z,10.63
2019-01-04T01:03:44.165Z,12.33
2019-01-04T01:07:08.139Z,14.83
2019-01-04T01:10:32.840Z,12.47
2019-01-04T01:13:32.585Z,15.53
2019-01-04T01:16:56.299Z,14.80
2019-01-04T01:19:47.688Z,9.27
2019-01-04T01:22:55.228Z,8.83
2019-01-04T01:26:01.436Z,11.67
2019-01-04T01:29:09.788Z,9.50
2019-01-04T01:31:55.835Z,14.23
2019-01-04T01:35:10.114Z,10.40
2019-01-04T01:38:34.462Z,7.97
2019-01-04T01:41:48.938Z,11.13
2019-01-04T01:44:54.869Z,15.23
2019-01-04T01:47:33.407Z,12.20
2019-01-04T01:50:51.814Z,16.43
2019-01-04T01:53:19.506Z,8.70
2019-01-04T01:55:47.052Z,10.87
2019-01-04T01:58:14.636Z,13.27
2019-01-04T02:00:42.220Z,17.37
2019-01-04T02:03:09.800Z,13.37
2019-01-04T02:05:37.327Z,11.43
2019-01-04T02:08:04.885Z,15.20
2019-01-04T02:10:32.515Z,10.20
2019-01-04T02:13:00.062Z,13.37
2019-01-04T02:15:27.643Z,18.40
2019-01-04T02:17:55.257Z,9.97
2019-01-04T02:20:22.802Z,17.37
2019-01-04T02:22:50.391Z,15.57
2019-01-04T02:25:17.947Z,12.87
2019-01-04T02:27:45.500Z,15.67
2019-01-04T02:30:13.043Z,11.37
2019-01-04T02:32:40.603Z,16.57
2019-01-04T02:35:08.149Z,10.23
2019-01-04T02:37:35.681Z,14.97
2019-01-04T02:40:03.272Z,13.47
2019-01-04T02:42:31.122Z,17.60
2019-01-04T02:44:58.733Z,9.30
2019-01-04T02:47:26.357Z,15.60
2019-01-04T02:49:53.929Z,10.67
2019-01-04T02:52:21.474Z,11.07
2019-01-04T02:54:49.085Z,17.43
2019-01-04T02:57:16.604Z,21.23
2019-01-04T02:59:44.240Z,14.13
2019-01-04T03:02:11.923Z,16.67
2019-01-04T03:04:39.474Z,18.30
2019-01-04T03:07:07.028Z,9.43
2019-01-04T03:09:34.590Z,18.60
2019-01-04T03:12:02.133Z,13.63
2019-01-04T03:14:29.665Z,9.47
2019-01-04T03:16:57.291Z,11.63
2019-01-04T03:19:24.813Z,16.10
2019-01-04T03:21:52.459Z,14.00
2019-01-04T03:24:20.050Z,10.40
2019-01-04T03:26:47.567Z,16.70
2019-01-04T03:29:15.161Z,15.97
2019-01-04T03:31:42.819Z,18.33
2019-01-04T03:34:10.368Z,19.57
2019-01-04T03:36:37.905Z,12.67
2019-01-04T03:39:05.511Z,15.17
2019-01-04T03:41:33.460Z,10.97
2019-01-04T03:44:00.982Z,17.27
2019-01-04T03:46:28.516Z,12.13
2019-01-04T03:48:56.064Z,10.87
2019-01-04T03:51:23.611Z,13.67
2019-01-04T03:53:51.138Z,19.27
2019-01-04T03:56:18.690Z,15.87
2019-01-04T03:58:46.215Z,10.03
2019-01-04T04:01:13.787Z,17.93
2019-01-04T04:03:41.360Z,10.70
2019-01-04T04:06:09.166Z,10.70
2019-01-04T04:08:36.700Z,13.83
2019-01-04T04:11:04.252Z,15.77
2019-01-04T04:13:31.781Z,16.10
2019-01-04T04:15:59.337Z,19.83
2019-01-04T04:18:26.869Z,15.20
2019-01-04T04:20:54.402Z,13.13
2019-01-04T04:23:21.998Z,11.30
2019-01-04T04:25:49.623Z,9.53
2019-01-04T04:28:17.092Z,15.03
2019-01-04T04:30:44.635Z,9.13
2019-01-04T04:33:12.224Z,14.10
2019-01-04T04:35:39.741Z,11.13
2019-01-04T04:38:07.281Z,11.67
2019-01-04T04:40:34.846Z,12.13
2019-01-04T04:43:02.399Z,6.97
2019-01-04T04:45:29.971Z,13.20
2019-01-04T04:47:57.563Z,16.07
2019-01-04T04:50:25.073Z,24.20
2019-01-04T04:52:52.590Z,20.07
2019-01-04T04:55:20.169Z,14.70
2019-01-04T04:57:47.707Z,15.83
2019-01-04T05:00:15.221Z,17.00
2019-01-04T05:02:42.811Z,14.37
2019-01-04T05:05:10.341Z,21.17
2019-01-04T05:07:37.866Z,17.77
2019-01-04T05:10:05.462Z,28.20
2019-01-04T05:12:33.057Z,34.97
2019-01-04T05:15:00.578Z,25.97
2019-01-04T05:17:28.145Z,26.97
2019-01-04T05:19:55.671Z,23.07
2019-01-04T05:22:23.276Z,23.73
2019-01-04T05:24:50.862Z,36.13
2019-01-04T05:27:18.431Z,31.70
2019-01-04T05:29:45.965Z,25.23
2019-01-04T05:32:13.579Z,21.27
2019-01-04T05:34:41.095Z,28.63
2019-01-04T05:37:08.619Z,30.80
2019-01-04T05:39:36.204Z,19.07
2019-01-04T05:42:03.719Z,29.87
2019-01-04T05:44:31.209Z,29.33
2019-01-04T05:46:58.770Z,33.93
2019-01-04T05:49:26.269Z,27.10
2019-01-04T05:51:53.810Z,29.20
2019-01-04T05:54:21.383Z,23.90
2019-01-04T05:56:48.907Z,28.47
2019-01-04T05:59:16.471Z,29.17
2019-01-04T06:01:44.097Z,29.03
2019-01-04T06:04:11.658Z,29.93
2019-01-04T06:06:39.156Z,26.37
2019-01-04T06:09:07.801Z,34.93
2019-01-04T06:11:35.304Z,39.40
2019-01-04T06:14:02.839Z,31.10
2019-01-04T06:16:30.467Z,29.60
2019-01-04T06:18:58.089Z,23.27
2019-01-04T06:21:25.603Z,22.70
2019-01-04T06:23:53.208Z,26.17
2019-01-04T06:26:20.779Z,37.93
2019-01-04T06:28:48.330Z,29.37
2019-01-04T06:31:15.851Z,30.83
2019-01-04T06:33:43.480Z,42.90
2019-01-04T06:36:11.180Z,29.13
2019-01-04T06:38:38.696Z,35.73
2019-01-04T06:41:06.307Z,59.57
2019-01-04T06:43:33.867Z,45.10
2019-01-04T06:46:01.384Z,55.20
2019-01-04T06:48:28.973Z,44.77
2019-01-04T06:50:56.550Z,52.40
2019-01-04T06:53:24.103Z,59.40
2019-01-04T06:56:03.110Z,61.00
2019-01-04T06:58:30.663Z,81.33
2019-01-04T07:00:58.300Z,63.87
2019-01-04T07:03:25.812Z,57.77
2019-01-04T07:05:55.710Z,47.13
2019-01-04T07:08:23.277Z,50.60
2019-01-04T07:10:50.796Z,51.20
2019-01-04T07:13:18.311Z,51.97
2019-01-04T07:15:45.898Z,56.10
2019-01-04T07:18:13.449Z,52.20
2019-01-04T07:20:40.983Z,84.10
2019-01-04T07:23:08.588Z,65.00
2019-01-04T07:25:36.301Z,57.27
2019-01-04T07:28:03.941Z,46.70
2019-01-04T07:30:31.560Z,68.80
2019-01-04T07:32:59.096Z,69.63
2019-01-04T07:35:26.594Z,63.63
2019-01-04T07:37:54.193Z,70.77
2019-01-04T07:40:21.786Z,53.87
2019-01-04T07:42:49.308Z,83.90
2019-01-04T07:45:16.860Z,56.07
2019-01-04T07:47:44.353Z,76.87
2019-01-04T07:50:12.207Z,74.83
2019-01-04T07:52:39.756Z,65.93
2019-01-04T07:55:09.328Z,65.00
2019-01-04T07:57:36.867Z,61.93
2019-01-04T08:00:06.968Z,71.50
2019-01-04T08:02:36.540Z,59.53
2019-01-04T08:05:05.395Z,62.97
2019-01-04T08:07:33.092Z,47.40
2019-01-04T08:10:00.580Z,53.10
2019-01-04T08:12:28.131Z,56.37
2019-01-04T08:14:55.672Z,50.27
2019-01-04T08:17:23.197Z,38.13
2019-01-04T08:19:50.764Z,48.07
2019-01-04T08:22:18.301Z,33.07
2019-01-04T08:24:45.865Z,28.43
2019-01-04T08:27:13.568Z,35.80
2019-01-04T08:29:41.110Z,30.10
2019-01-04T08:32:08.647Z,28.80
2019-01-04T08:34:36.226Z,32.30
2019-01-04T08:37:03.780Z,32.57
2019-01-04T08:39:31.299Z,32.20
2019-01-04T08:41:58.863Z,29.20
2019-01-04T08:44:26.380Z,25.07
2019-01-04T08:46:53.921Z,36.13
2019-01-04T08:49:21.494Z,37.40
2019-01-04T08:51:49.007Z,42.03
2019-01-04T08:54:16.524Z,49.87
2019-01-04T08:56:44.119Z,44.40
2019-01-04T08:59:11.611Z,28.13
2019-01-04T09:01:39.174Z,34.77
2019-01-04T09:04:06.704Z,42.37
2019-01-04T09:06:34.214Z,55.50
2019-01-04T09:09:01.767Z,51.20
2019-01-04T09:11:29.263Z,35.93
2019-01-04T09:13:56.824Z,37.63
2019-01-04T09:16:24.392Z,76.50
2019-01-04T09:18:51.887Z,67.37
2019-01-04T09:21:19.399Z,53.37
2019-01-04T09:23:46.956Z,57.53
2019-01-04T09:26:14.500Z,48.37
2019-01-04T09:28:42.010Z,50.90
2019-01-04T09:31:09.542Z,35.20
2019-01-04T09:33:37.757Z,32.57
2019-01-04T09:36:05.275Z,39.00
2019-01-04T09:38:32.871Z,38.53
2019-01-04T09:41:33.330Z,54.33
2019-01-04T09:44:01.310Z,46.57
2019-01-04T09:46:28.842Z,41.10
2019-01-04T09:48:56.388Z,37.40
2019-01-04T09:51:23.953Z,36.07
2019-01-04T09:53:51.465Z,37.47
2019-01-04T09:56:18.983Z,43.43
2019-01-04T09:58:46.601Z,31.63
2019-01-04T10:01:14.168Z,44.87
2019-01-04T10:03:41.707Z,44.97
2019-01-04T10:06:09.277Z,26.13
2019-01-04T10:08:36.800Z,32.50
2019-01-04T10:11:04.309Z,34.80
2019-01-04T10:13:31.852Z,56.83
2019-01-04T10:15:59.450Z,27.03
2019-01-04T10:18:26.954Z,39.33
2019-01-04T10:20:54.513Z,37.43
2019-01-04T10:23:22.041Z,28.33
2019-01-04T10:25:49.857Z,45.23
2019-01-04T10:28:17.429Z,36.40
2019-01-04T10:30:44.978Z,43.70
2019-01-04T10:33:13.500Z,40.17
2019-01-04T10:35:41.072Z,59.03
2019-01-04T10:38:08.623Z,36.07
2019-01-04T10:40:36.135Z,28.83
2019-01-04T10:43:03.705Z,28.37
2019-01-04T10:45:31.196Z,31.43
2019-01-04T10:47:58.745Z,34.77
2019-01-04T10:50:26.316Z,26.77
2019-01-04T10:52:53.920Z,29.23
2019-01-04T10:55:21.581Z,35.33
2019-01-04T10:57:49.212Z,28.10
2019-01-04T11:00:18.232Z,24.50
2019-01-04T11:02:45.775Z,44.97
2019-01-04T11:05:13.447Z,26.80
2019-01-04T11:07:41.166Z,26.10
2019-01-04T11:10:12.272Z,26.47
2019-01-04T11:12:39.850Z,28.03
2019-01-04T11:15:08.328Z,35.90
2019-01-04T11:17:42.892Z,26.77
2019-01-04T11:20:41.883Z,32.63
2019-01-04T11:23:35.883Z,28.70
2019-01-04T11:26:42.678Z,30.17
2019-01-04T11:29:30.301Z,33.90
2019-01-04T11:32:10.124Z,30.90
2019-01-04T11:35:34.657Z,36.13
2019-01-04T11:38:12.207Z,33.37
2019-01-04T11:41:06.886Z,32.97
2019-01-04T11:44:08.343Z,30.53
2019-01-04T11:47:38.843Z,29.23
2019-01-04T11:50:33.002Z,35.07
2019-01-04T11:53:09.372Z,28.23
2019-01-04T11:55:36.968Z,35.40
2019-01-04T11:58:04.486Z,32.80
2019-01-04T12:00:32.020Z,58.77
2019-01-04T12:02:59.578Z,35.73
2019-01-04T12:05:27.095Z,39.57
2019-01-04T12:07:54.624Z,35.00
2019-01-04T12:10:22.223Z,51.93
2019-01-04T12:12:49.757Z,44.43
2019-01-04T12:15:17.270Z,41.60
2019-01-04T12:17:44.882Z,39.60
2019-01-04T12:20:12.398Z,36.43
2019-01-04T12:22:39.928Z,55.80
2019-01-04T12:25:07.566Z,49.93
2019-01-04T12:27:35.084Z,45.47
2019-01-04T12:30:02.555Z,45.97
2019-01-04T12:32:30.112Z,41.70
2019-01-04T12:34:57.674Z,35.53
2019-01-04T12:37:25.221Z,45.07
2019-01-04T12:39:52.763Z,43.53
2019-01-04T12:42:22.092Z,46.60
2019-01-04T12:44:49.596Z,42.27
2019-01-04T12:47:17.184Z,74.37
2019-01-04T12:49:44.767Z,131.97
2019-01-04T12:52:12.324Z,96.40
2019-01-04T12:54:39.894Z,66.03
2019-01-04T12:57:07.550Z,70.83
2019-01-04T12:59:35.059Z,66.20
2019-01-04T13:02:02.835Z,48.53
2019-01-04T13:04:30.455Z,52.03
2019-01-04T13:06:58.016Z,48.47
2019-01-04T13:09:25.592Z,55.63
2019-01-04T13:11:53.136Z,47.33
2019-01-04T13:14:20.651Z,79.47
2019-01-04T13:16:48.226Z,70.43
2019-01-04T13:19:15.766Z,58.47
2019-01-04T13:21:43.304Z,41.47
2019-01-04T13:24:10.861Z,47.83
2019-01-04T13:26:38.394Z,31.97
2019-01-04T13:29:05.923Z,40.23
2019-01-04T13:31:33.548Z,42.43
2019-01-04T13:34:01.084Z,41.20
2019-01-04T13:36:28.600Z,28.70
2019-01-04T13:38:56.174Z,43.17
2019-01-04T13:41:23.755Z,32.00
2019-01-04T13:43:51.287Z,46.53
2019-01-04T13:46:19.859Z,36.23
2019-01-04T13:48:47.406Z,40.20
2019-01-04T13:51:14.944Z,31.50
2019-01-04T13:53:42.521Z,37.87
2019-01-04T13:56:10.077Z,36.53
2019-01-04T13:58:37.643Z,36.17
2019-01-04T14:01:05.236Z,32.47
2019-01-04T14:03:32.747Z,39.60
2019-01-04T14:06:00.363Z,35.43
2019-01-04T14:08:27.881Z,34.03
2019-01-04T14:10:55.439Z,39.87
2019-01-04T14:13:22.972Z,40.57
2019-01-04T14:15:50.557Z,50.63
2019-01-04T14:18:18.176Z,93.83
2019-01-04T14:20:45.704Z,164.13
2019-01-04T14:23:13.263Z,93.23
2019-01-04T14:25:40.894Z,55.40
2019-01-04T14:28:08.395Z,134.03
2019-01-04T14:30:36.020Z,168.13
2019-01-04T14:33:03.740Z,132.60
2019-01-04T14:35:31.287Z,92.57
2019-01-04T14:37:58.902Z,79.47
2019-01-04T14:40:27.788Z,63.97
2019-01-04T14:42:55.413Z,63.77
2019-01-04T14:45:22.988Z,72.37
2019-01-04T14:47:50.556Z,67.90
2019-01-04T14:50:18.113Z,58.37
2019-01-04T14:52:45.688Z,58.27
2019-01-04T14:55:13.245Z,55.53
2019-01-04T14:57:40.770Z,47.50
2019-01-04T15:00:10.922Z,58.20
2019-01-04T15:02:38.463Z,58.67
2019-01-04T15:05:07.048Z,45.13
2019-01-04T15:07:34.719Z,41.33
2019-01-04T15:10:02.265Z,47.40
2019-01-04T15:12:29.812Z,49.80
2019-01-04T15:14:57.427Z,49.40
2019-01-04T15:17:25.000Z,38.87
2019-01-04T15:19:52.568Z,48.87
2019-01-04T15:22:20.402Z,48.13
2019-01-04T15:24:47.958Z,48.83
2019-01-04T15:27:15.601Z,53.50
2019-01-04T15:29:43.199Z,52.83
2019-01-04T15:32:10.756Z,45.63
2019-01-04T15:34:38.302Z,56.80
2019-01-04T15:37:05.910Z,44.13
2019-01-04T15:39:33.463Z,44.83
2019-01-04T15:42:01.008Z,52.50
2019-01-04T15:44:28.608Z,54.30
2019-01-04T15:46:56.162Z,56.17
2019-01-04T15:49:23.733Z,64.63
2019-01-04T15:51:51.279Z,70.40
2019-01-04T15:54:18.841Z,143.67
2019-01-04T15:56:46.475Z,98.53
2019-01-04T15:59:14.037Z,104.20
2019-01-04T16:01:41.591Z,90.87
2019-01-04T16:04:09.177Z,88.13
2019-01-04T16:06:36.775Z,58.33
2019-01-04T16:09:06.385Z,75.93
2019-01-04T16:11:33.956Z,75.90
2019-01-04T16:14:01.591Z,51.33
2019-01-04T16:16:29.196Z,62.77
2019-01-04T16:18:56.779Z,60.33
2019-01-04T16:21:25.405Z,58.23
2019-01-04T16:23:52.999Z,52.37
2019-01-04T16:26:21.277Z,49.30
2019-01-04T16:28:48.887Z,55.90
2019-01-04T16:31:16.437Z,54.70
2019-01-04T16:33:44.043Z,57.20
2019-01-04T16:36:11.755Z,61.77
2019-01-04T16:38:39.339Z,70.50
2019-01-04T16:41:06.998Z,88.90
2019-01-04T16:43:34.747Z,62.43
2019-01-04T16:46:04.885Z,72.80
2019-01-04T16:48:32.549Z,102.63
2019-01-04T16:51:00.139Z,123.53
2019-01-04T16:53:27.732Z,70.77
2019-01-04T16:55:55.378Z,60.07
2019-01-04T16:58:23.576Z,53.07
2019-01-04T17:00:51.199Z,60.63
2019-01-04T17:03:18.827Z,55.93
2019-01-04T17:05:46.441Z,61.90
2019-01-04T17:08:13.993Z,60.00
2019-01-04T17:10:41.687Z,65.67
2019-01-04T17:13:09.268Z,64.47
2019-01-04T17:15:36.823Z,72.40
2019-01-04T17:18:04.411Z,82.47
2019-01-04T17:20:31.995Z,74.50
2019-01-04T17:22:59.585Z,89.80
2019-01-04T17:25:27.206Z,86.67
2019-01-04T17:27:54.863Z,70.87
2019-01-04T17:30:22.471Z,68.53
2019-01-04T17:32:50.023Z,72.70
2019-01-04T17:35:17.655Z,75.03
2019-01-04T17:37:45.289Z,76.43
2019-01-04T17:40:12.918Z,72.17
2019-01-04T17:42:40.548Z,66.37
2019-01-04T17:45:08.138Z,65.97
2019-01-04T17:47:35.763Z,65.47
2019-01-04T17:50:03.466Z,71.20
2019-01-04T17:52:31.039Z,63.37
2019-01-04T17:54:58.687Z,71.90
2019-01-04T17:57:26.364Z,76.47
2019-01-04T17:59:53.973Z,63.90
2019-01-04T18:02:21.665Z,66.57
2019-01-04T18:04:50.282Z,72.77
2019-01-04T18:07:17.851Z,71.30
2019-01-04T18:09:45.443Z,74.77
2019-01-04T18:12:13.016Z,75.73
2019-01-04T18:14:40.637Z,92.47
2019-01-04T18:17:08.291Z,74.83
2019-01-04T18:19:35.872Z,70.50
2019-01-04T18:22:05.079Z,78.77
2019-01-04T18:24:32.695Z,85.30
2019-01-04T18:27:00.309Z,66.77
2019-01-04T18:29:27.931Z,74.83
2019-01-04T18:31:55.531Z,57.80
2019-01-04T18:34:23.148Z,65.30
2019-01-04T18:36:50.751Z,70.30
2019-01-04T18:39:18.331Z,61.67
2019-01-04T18:41:46.628Z,69.33
2019-01-04T18:44:14.275Z,70.00
2019-01-04T18:46:41.845Z,77.60
2019-01-04T18:49:09.439Z,66.50
2019-01-04T18:51:37.015Z,71.47
2019-01-04T18:54:04.593Z,65.67
2019-01-04T18:56:32.137Z,62.30
2019-01-04T18:58:59.771Z,65.63
2019-01-04T19:01:27.415Z,71.23
2019-01-04T19:03:55.004Z,70.60
2019-01-04T19:06:22.861Z,76.47
2019-01-04T19:08:50.457Z,67.10
2019-01-04T19:11:18.115Z,72.67
2019-01-04T19:13:45.804Z,75.90
2019-01-04T19:16:13.377Z,73.00
2019-01-04T19:18:41.147Z,69.10
2019-01-04T19:21:08.823Z,73.13
2019-01-04T19:23:39.538Z,67.67
2019-01-04T19:26:05.837Z,81.67
2019-01-04T19:28:33.439Z,82.63
2019-01-04T19:31:01.114Z,71.10
2019-01-04T19:33:28.710Z,74.10
2019-01-04T19:35:56.348Z,71.37
2019-01-04T19:38:23.963Z,72.00
2019-01-04T19:40:51.512Z,74.67
2019-01-04T19:43:19.094Z,98.77
2019-01-04T19:45:46.703Z,103.37
2019-01-04T19:48:14.313Z,159.90
2019-01-04T19:50:41.846Z,99.13
2019-01-04T19:53:09.510Z,168.47
2019-01-04T19:55:37.115Z,74.63
2019-01-04T19:58:04.723Z,73.50
2019-01-04T20:00:32.364Z,72.00
2019-01-04T20:02:59.911Z,79.83
2019-01-04T20:06:39.027Z,77.37
2019-01-04T20:10:31.870Z,91.40
2019-01-04T20:14:01.511Z,79.23
2019-01-04T20:17:01.963Z,78.60
2019-01-04T20:19:47.440Z,79.83
2019-01-04T20:22:32.796Z,74.03
2019-01-04T20:25:18.687Z,77.50
2019-01-04T20:28:18.006Z,77.47
2019-01-04T20:31:05.078Z,79.83
2019-01-04T20:33:50.438Z,79.10
2019-01-04T20:36:37.466Z,79.63
2019-01-04T20:39:33.940Z,83.43
2019-01-04T20:42:19.655Z,82.00
2019-01-04T20:45:12.980Z,71.70
2019-01-04T20:47:58.921Z,68.27
2019-01-04T20:50:38.983Z,72.27
2019-01-04T20:53:26.030Z,69.53
2019-01-04T20:56:13.463Z,72.87
2019-01-04T20:59:03.484Z,87.93
2019-01-04T21:01:53.303Z,75.87
2019-01-04T21:04:46.370Z,79.50
2019-01-04T21:07:28.775Z,96.67
2019-01-04T21:10:14.267Z,102.40
2019-01-04T21:13:14.007Z,85.27
2019-01-04T21:15:59.630Z,110.17
2019-01-04T21:18:46.887Z,128.23
2019-01-04T21:21:49.074Z,92.57
2019-01-04T21:24:30.339Z,92.57
2019-01-04T21:27:16.134Z,85.63
2019-01-04T21:29:54.926Z,83.40
2019-01-04T21:32:49.075Z,85.17
2019-01-04T21:35:44.398Z,76.27
2019-01-04T21:38:34.528Z,84.83
2019-01-04T21:41:30.935Z,73.20
2019-01-04T21:44:17.989Z,79.47
2019-01-04T21:47:04.035Z,81.20
2019-01-04T21:49:58.809Z,76.80
2019-01-04T21:52:55.372Z,79.70
2019-01-04T21:55:45.505Z,78.27
2019-01-04T21:58:31.681Z,69.73
2019-01-04T22:01:18.235Z,80.10
2019-01-04T22:04:04.047Z,71.77
2019-01-04T22:07:09.579Z,74.10
2019-01-04T22:10:14.731Z,71.57
2019-01-04T22:13:07.331Z,75.67
2019-01-04T22:15:48.468Z,74.90
2019-01-04T22:18:34.317Z,77.53
2019-01-04T22:21:20.131Z,70.10
2019-01-04T22:24:10.110Z,82.17
2019-01-04T22:26:56.013Z,79.03
2019-01-04T22:29:52.329Z,73.57
2019-01-04T22:32:37.611Z,83.50
2019-01-04T22:35:23.517Z,87.33
2019-01-04T22:38:09.404Z,87.27
2019-01-04T22:40:56.464Z,69.47
2019-01-04T22:43:42.145Z,81.27
2019-01-04T22:46:29.183Z,76.10
2019-01-04T22:49:22.178Z,79.70
2019-01-04T22:52:08.328Z,70.57
2019-01-04T22:54:52.593Z,75.67
2019-01-04T22:57:39.666Z,93.60
2019-01-04T23:00:35.923Z,76.13
2019-01-04T23:03:22.185Z,72.90
2019-01-04T23:06:15.289Z,70.20
2019-01-04T23:09:11.450Z,73.27
2019-01-04T23:11:58.629Z,91.63
2019-01-04T23:14:51.567Z,75.50
2019-01-04T23:17:38.598Z,77.47
2019-01-04T23:20:34.813Z,78.80
2019-01-04T23:23:24.601Z,68.50
2019-01-04T23:26:20.347Z,75.90
2019-01-04T23:29:13.484Z,76.33
2019-01-04T23:32:00.597Z,65.80
2019-01-04T23:34:46.221Z,72.07
2019-01-04T23:37:51.641Z,77.73
2019-01-04T23:40:37.573Z,83.70
2019-01-04T23:43:23.378Z,76.83
2019-01-04T23:46:10.405Z,70.37
2019-01-04T23:49:09.761Z,71.03
2019-01-04T23:52:02.554Z,58.40
2019-01-04T23:54:48.133Z,76.93
2019-01-04T23:57:34.080Z,67.50
